createdAt,value
2018-06-15T00:00:07.189Z,15.50
2018-06-15T00:02:36.297Z,15.30
2018-06-15T00:05:04.921Z,15.20
2018-06-15T00:07:33.604Z,15.40
2018-06-15T00:10:02.526Z,15.30
2018-06-15T00:12:31.101Z,15.50
2018-06-15T00:14:59.753Z,15.40
2018-06-15T00:17:28.417Z,15.30
2018-06-15T00:19:56.908Z,15.40
2018-06-15T00:22:25.437Z,15.40
2018-06-15T00:24:54.229Z,15.50
2018-06-15T00:27:22.741Z,15.40
2018-06-15T00:29:51.349Z,15.50
2018-06-15T00:32:19.904Z,15.40
2018-06-15T00:34:48.534Z,15.40
2018-06-15T00:37:17.033Z,15.50
2018-06-15T00:39:45.664Z,15.50
2018-06-15T00:42:14.224Z,15.30
2018-06-15T00:44:43.200Z,15.20
2018-06-15T00:47:11.781Z,15.20
2018-06-15T00:49:40.332Z,15.40
2018-06-15T00:52:09.689Z,15.50
2018-06-15T00:54:38.493Z,15.60
2018-06-15T00:57:18.144Z,15.40
2018-06-15T00:59:46.744Z,15.40
2018-06-15T01:02:15.473Z,15.40
2018-06-15T01:04:44.046Z,15.30
2018-06-15T01:07:12.619Z,15.30
2018-06-15T01:09:41.212Z,15.30
2018-06-15T01:12:09.806Z,15.40
2018-06-15T01:14:38.516Z,15.30
2018-06-15T01:17:07.020Z,15.20
2018-06-15T01:19:35.519Z,15.20
2018-06-15T01:22:04.089Z,15.10
2018-06-15T01:24:32.573Z,15.20
2018-06-15T01:27:02.181Z,15.20
2018-06-15T01:29:30.681Z,15.10
2018-06-15T01:31:59.562Z,15.00
2018-06-15T01:34:29.992Z,14.90
2018-06-15T01:36:58.485Z,14.90
2018-06-15T01:39:26.992Z,14.80
2018-06-15T01:41:55.522Z,14.90
2018-06-15T01:44:24.090Z,14.90
2018-06-15T01:46:53.945Z,14.90
2018-06-15T01:49:22.460Z,15.00
2018-06-15T01:51:50.971Z,15.10
2018-06-15T01:54:19.452Z,15.10
2018-06-15T01:56:47.965Z,15.30
2018-06-15T01:59:16.436Z,15.10
2018-06-15T02:01:44.912Z,15.10
2018-06-15T02:04:13.420Z,15.30
2018-06-15T02:06:42.253Z,15.20
2018-06-15T02:09:11.781Z,15.10
2018-06-15T02:11:40.293Z,15.00
2018-06-15T02:14:09.229Z,14.90
2018-06-15T02:16:37.727Z,14.90
2018-06-15T02:19:06.262Z,14.90
2018-06-15T02:21:35.829Z,14.90
2018-06-15T02:24:05.373Z,14.90
2018-06-15T02:26:33.914Z,14.80
2018-06-15T02:29:02.429Z,14.80
2018-06-15T02:31:31.080Z,14.80
2018-06-15T02:33:59.651Z,14.80
2018-06-15T02:36:28.182Z,14.90
2018-06-15T02:38:56.678Z,14.90
2018-06-15T02:41:25.199Z,15.00
2018-06-15T02:43:53.712Z,15.10
2018-06-15T02:46:22.234Z,15.10
2018-06-15T02:51:18.922Z,15.20
2018-06-15T02:53:47.433Z,15.10
2018-06-15T02:56:15.976Z,15.00
2018-06-15T02:58:44.471Z,15.00
2018-06-15T03:01:13.285Z,14.90
2018-06-15T03:03:42.191Z,14.90
2018-06-15T03:06:10.741Z,14.90
2018-06-15T03:08:39.245Z,14.80
2018-06-15T03:11:08.444Z,14.80
2018-06-15T03:13:36.941Z,14.80
2018-06-15T03:16:05.462Z,14.90
2018-06-15T03:18:33.994Z,15.00
2018-06-15T03:21:02.925Z,15.00
2018-06-15T03:23:32.358Z,15.00
2018-06-15T03:26:00.921Z,15.00
2018-06-15T03:28:29.481Z,15.10
2018-06-15T03:30:58.016Z,15.10
2018-06-15T03:33:27.105Z,15.00
2018-06-15T03:35:55.895Z,15.00
2018-06-15T03:38:24.661Z,14.90
2018-06-15T03:40:53.478Z,14.90
2018-06-15T03:43:21.970Z,14.80
2018-06-15T03:45:50.509Z,15.00
2018-06-15T03:48:19.818Z,15.20
2018-06-15T03:50:48.321Z,15.40
2018-06-15T03:53:16.824Z,15.20
2018-06-15T03:55:45.345Z,15.10
2018-06-15T03:58:14.495Z,15.10
2018-06-15T04:00:42.985Z,15.20
2018-06-15T04:05:39.697Z,15.00
2018-06-15T04:08:08.206Z,15.00
2018-06-15T04:10:36.894Z,15.10
2018-06-15T04:13:05.884Z,15.40
2018-06-15T04:15:34.333Z,15.40
2018-06-15T04:20:38.300Z,15.30
2018-06-15T04:23:07.101Z,15.20
2018-06-15T04:25:35.982Z,15.20
2018-06-15T04:28:04.774Z,15.30
2018-06-15T04:30:33.818Z,15.40
2018-06-15T04:35:30.534Z,15.30
2018-06-15T04:37:59.066Z,15.40
2018-06-15T04:40:27.692Z,15.60
2018-06-15T04:42:56.182Z,15.60
2018-06-15T04:45:24.710Z,15.60
2018-06-15T04:47:54.261Z,15.70
2018-06-15T04:50:22.755Z,15.70
2018-06-15T04:52:51.804Z,15.80
2018-06-15T04:55:20.358Z,15.90
2018-06-15T04:57:48.977Z,15.90
2018-06-15T05:00:18.049Z,15.80
2018-06-15T05:02:46.567Z,16.10
2018-06-15T05:05:16.590Z,16.20
2018-06-15T05:07:45.129Z,16.20
2018-06-15T05:10:13.622Z,16.30
2018-06-15T05:12:42.113Z,16.30
2018-06-15T05:15:10.638Z,16.20
2018-06-15T05:17:39.185Z,16.20
2018-06-15T05:20:07.752Z,16.40
2018-06-15T05:22:36.363Z,16.40
2018-06-15T05:25:05.545Z,16.30
2018-06-15T05:27:34.041Z,16.30
2018-06-15T05:30:02.591Z,16.30
2018-06-15T05:32:31.804Z,16.30
2018-06-15T05:35:00.966Z,16.30
2018-06-15T05:37:29.722Z,16.70
2018-06-15T05:39:58.836Z,17.00
2018-06-15T05:42:27.317Z,17.10
2018-06-15T05:44:57.873Z,17.20
2018-06-15T05:47:26.389Z,17.10
2018-06-15T05:49:54.907Z,17.00
2018-06-15T05:52:24.362Z,17.00
2018-06-15T05:54:52.845Z,17.20
2018-06-15T05:57:21.394Z,17.30
2018-06-15T05:59:49.889Z,17.20
2018-06-15T06:02:18.391Z,17.40
2018-06-15T06:04:47.563Z,17.50
2018-06-15T06:07:16.049Z,17.60
2018-06-15T06:09:45.070Z,17.70
2018-06-15T06:12:13.594Z,17.70
2018-06-15T06:14:42.090Z,17.60
2018-06-15T06:17:11.509Z,17.60
2018-06-15T06:19:40.780Z,17.60
2018-06-15T06:22:11.398Z,17.80
2018-06-15T06:24:39.899Z,17.90
2018-06-15T06:27:08.513Z,18.00
2018-06-15T06:29:37.046Z,18.00
2018-06-15T06:32:05.919Z,18.10
2018-06-15T06:34:34.538Z,18.20
2018-06-15T06:37:03.079Z,18.40
2018-06-15T06:39:31.598Z,18.40
2018-06-15T06:42:00.137Z,18.40
2018-06-15T06:44:28.641Z,18.30
2018-06-15T06:46:57.766Z,18.30
2018-06-15T06:49:26.286Z,18.50
2018-06-15T06:51:54.835Z,18.50
2018-06-15T06:54:26.260Z,18.70
2018-06-15T06:56:54.758Z,18.60
2018-06-15T06:59:24.198Z,18.70
2018-06-15T07:01:53.734Z,18.90
2018-06-15T07:04:22.261Z,19.00
2018-06-15T07:06:50.778Z,19.10
2018-06-15T07:09:19.325Z,19.10
2018-06-15T07:11:47.822Z,19.00
2018-06-15T07:14:17.273Z,19.10
2018-06-15T07:16:45.815Z,19.10
2018-06-15T07:19:14.677Z,19.30
2018-06-15T07:21:43.555Z,19.50
2018-06-15T07:24:12.078Z,19.30
2018-06-15T07:26:41.667Z,19.50
2018-06-15T07:29:12.110Z,19.50
2018-06-15T07:31:41.271Z,19.50
2018-06-15T07:34:09.761Z,19.40
2018-06-15T07:36:38.278Z,19.50
2018-06-15T07:39:08.576Z,19.80
2018-06-15T07:41:37.072Z,19.90
2018-06-15T07:44:05.618Z,20.20
2018-06-15T07:46:34.136Z,20.20
2018-06-15T07:49:02.643Z,20.40
2018-06-15T07:51:31.166Z,20.70
2018-06-15T07:53:59.707Z,20.80
2018-06-15T07:56:28.208Z,20.90
2018-06-15T07:58:56.729Z,21.00
2018-06-15T08:01:25.267Z,21.00
2018-06-15T08:04:02.392Z,20.70
2018-06-15T08:06:31.557Z,20.40
2018-06-15T08:09:00.997Z,20.20
2018-06-15T08:11:29.998Z,20.10
2018-06-15T08:13:58.661Z,19.90
2018-06-15T08:18:56.566Z,19.80
2018-06-15T08:21:25.066Z,19.70
2018-06-15T08:23:53.946Z,19.60
2018-06-15T08:26:24.500Z,19.60
2018-06-15T08:28:53.017Z,19.60
2018-06-15T08:33:49.701Z,19.80
2018-06-15T08:36:18.333Z,19.90
2018-06-15T08:38:47.155Z,19.70
2018-06-15T08:41:15.681Z,19.70
2018-06-15T08:43:44.569Z,19.70
2018-06-15T08:46:13.075Z,19.70
2018-06-15T08:48:41.633Z,19.80
2018-06-15T08:51:10.190Z,19.90
2018-06-15T08:53:39.623Z,20.00
2018-06-15T08:56:08.114Z,20.10
2018-06-15T08:58:36.633Z,20.00
2018-06-15T09:01:05.577Z,19.80
2018-06-15T09:03:34.477Z,19.90
2018-06-15T09:06:03.002Z,20.00
2018-06-15T09:08:31.503Z,20.10
2018-06-15T09:11:00.022Z,20.30
2018-06-15T09:13:28.567Z,20.40
2018-06-15T09:15:57.177Z,20.50
2018-06-15T09:18:26.147Z,20.60
2018-06-15T09:20:54.663Z,20.80
2018-06-15T09:23:23.186Z,20.80
2018-06-15T09:25:53.054Z,20.60
2018-06-15T09:28:23.653Z,20.40
2018-06-15T09:30:52.682Z,20.30
2018-06-15T09:33:21.243Z,20.30
2018-06-15T09:35:50.405Z,20.40
2018-06-15T09:38:19.253Z,20.40
2018-06-15T09:40:47.767Z,20.50
2018-06-15T09:43:16.300Z,20.50
2018-06-15T09:45:45.288Z,20.60
2018-06-15T09:48:14.742Z,20.60
2018-06-15T09:50:43.667Z,20.50
2018-06-15T09:53:12.247Z,20.30
2018-06-15T09:55:40.737Z,20.30
2018-06-15T09:58:10.230Z,20.20
2018-06-15T10:00:44.121Z,20.10
2018-06-15T10:03:13.055Z,20.10
2018-06-15T10:05:41.706Z,20.20
2018-06-15T10:08:10.440Z,20.20
2018-06-15T10:10:39.286Z,20.30
2018-06-15T10:13:07.901Z,20.50
2018-06-15T10:15:36.960Z,20.60
2018-06-15T10:18:05.674Z,20.60
2018-06-15T10:20:34.189Z,20.70
2018-06-15T10:23:02.711Z,21.10
2018-06-15T10:25:31.366Z,21.40
2018-06-15T10:30:30.991Z,21.60
2018-06-15T10:33:00.008Z,21.90
2018-06-15T10:35:28.896Z,21.70
2018-06-15T10:37:57.577Z,22.10
2018-06-15T10:40:26.147Z,22.20
2018-06-15T10:42:54.701Z,22.30
2018-06-15T10:45:25.129Z,22.40
2018-06-15T10:50:21.835Z,22.80
2018-06-15T10:52:50.337Z,22.90
2018-06-15T10:55:18.850Z,22.90
2018-06-15T11:00:15.569Z,22.30
2018-06-15T11:02:44.098Z,22.20
2018-06-15T11:05:12.645Z,22.00
2018-06-15T11:07:41.150Z,21.90
2018-06-15T11:10:09.703Z,21.70
2018-06-15T11:12:38.758Z,21.80
2018-06-15T11:15:07.302Z,22.00
2018-06-15T11:17:36.721Z,22.40
2018-06-15T11:20:05.939Z,22.50
2018-06-15T11:22:34.444Z,22.40
2018-06-15T11:25:02.958Z,22.60
2018-06-15T11:27:31.479Z,23.10
2018-06-15T11:32:28.146Z,23.10
2018-06-15T11:34:57.577Z,23.00
2018-06-15T11:37:26.075Z,23.00
2018-06-15T11:39:55.465Z,23.30
2018-06-15T11:42:25.142Z,23.30
2018-06-15T11:44:53.937Z,23.50
2018-06-15T11:47:23.121Z,23.50
2018-06-15T11:49:51.666Z,23.40
2018-06-15T11:52:20.165Z,23.70
2018-06-15T11:54:49.605Z,23.50
2018-06-15T11:57:18.117Z,23.40
2018-06-15T11:59:46.613Z,23.40
2018-06-15T12:02:15.122Z,23.50
2018-06-15T12:04:43.677Z,23.50
2018-06-15T12:07:12.182Z,23.20
2018-06-15T12:09:40.943Z,23.00
2018-06-15T12:12:10.165Z,22.60
2018-06-15T12:17:06.835Z,22.40
2018-06-15T12:19:35.350Z,22.70
2018-06-15T12:22:03.857Z,22.80
2018-06-15T12:24:32.353Z,23.20
2018-06-15T12:27:01.886Z,23.60
2018-06-15T12:29:30.382Z,23.90
2018-06-15T12:31:58.985Z,24.00
2018-06-15T12:34:28.509Z,24.30
2018-06-15T12:36:57.929Z,24.40
2018-06-15T12:39:26.438Z,24.40
2018-06-15T12:41:54.967Z,24.30
2018-06-15T12:44:23.486Z,24.20
2018-06-15T12:46:51.986Z,24.10
2018-06-15T12:49:21.157Z,24.10
2018-06-15T12:51:49.653Z,24.60
2018-06-15T12:54:18.986Z,24.40
2018-06-15T12:56:47.597Z,24.10
2018-06-15T12:59:16.135Z,24.20
2018-06-15T13:01:45.611Z,24.20
2018-06-15T13:04:14.266Z,24.30
2018-06-15T13:06:42.787Z,24.10
2018-06-15T13:09:12.358Z,23.30
2018-06-15T13:11:41.144Z,23.20
2018-06-15T13:14:09.646Z,23.20
2018-06-15T13:16:38.140Z,23.30
2018-06-15T13:19:06.931Z,23.30
2018-06-15T13:21:35.747Z,23.40
2018-06-15T13:24:04.311Z,23.60
2018-06-15T13:26:32.833Z,23.90
2018-06-15T13:29:01.326Z,23.90
2018-06-15T13:31:29.826Z,23.90
2018-06-15T13:33:58.377Z,24.00
2018-06-15T13:36:26.906Z,24.50
2018-06-15T13:38:55.444Z,25.10
2018-06-15T13:41:24.038Z,25.30
2018-06-15T13:44:07.262Z,25.60
2018-06-15T13:46:36.158Z,25.70
2018-06-15T13:49:05.162Z,25.60
2018-06-15T13:51:34.078Z,25.50
2018-06-15T13:54:02.618Z,25.30
2018-06-15T13:56:31.147Z,25.20
2018-06-15T13:58:59.692Z,25.20
2018-06-15T14:01:28.390Z,25.00
2018-06-15T14:03:57.074Z,24.90
2018-06-15T14:06:25.593Z,24.90
2018-06-15T14:08:54.116Z,24.90
2018-06-15T14:11:23.505Z,24.80
2018-06-15T14:13:52.001Z,24.80
2018-06-15T14:16:20.929Z,24.80
2018-06-15T14:18:49.421Z,24.70
2018-06-15T14:21:18.913Z,24.80
2018-06-15T14:23:47.440Z,24.60
2018-06-15T14:26:16.829Z,24.30
2018-06-15T14:28:45.326Z,24.20
2018-06-15T14:31:13.863Z,24.20
2018-06-15T14:33:42.388Z,24.10
2018-06-15T14:36:11.321Z,23.90
2018-06-15T14:38:39.846Z,23.90
2018-06-15T14:41:08.406Z,23.60
2018-06-15T14:43:36.916Z,23.60
2018-06-15T14:46:05.450Z,23.50
2018-06-15T14:48:34.734Z,23.50
2018-06-15T14:51:03.560Z,23.70
2018-06-15T14:53:33.157Z,23.90
2018-06-15T14:56:02.775Z,24.00
2018-06-15T14:58:32.438Z,24.00
2018-06-15T15:01:01.742Z,24.30
2018-06-15T15:03:30.960Z,24.50
2018-06-15T15:06:00.157Z,24.30
2018-06-15T15:08:29.282Z,24.20
2018-06-15T15:10:58.300Z,24.20
2018-06-15T15:13:27.661Z,24.50
2018-06-15T15:15:56.885Z,24.70
2018-06-15T15:18:25.454Z,25.00
2018-06-15T15:20:54.630Z,24.90
2018-06-15T15:23:23.239Z,24.70
2018-06-15T15:25:51.775Z,24.50
2018-06-15T15:28:20.273Z,24.50
2018-06-15T15:30:49.809Z,24.50
2018-06-15T15:33:18.369Z,24.70
2018-06-15T15:35:46.877Z,24.90
2018-06-15T15:38:15.432Z,25.00
2018-06-15T15:40:44.206Z,24.80
2018-06-15T15:43:12.827Z,24.50
2018-06-15T15:45:41.384Z,24.40
2018-06-15T15:48:09.891Z,24.10
2018-06-15T15:50:38.526Z,24.00
2018-06-15T15:53:10.001Z,24.00
2018-06-15T15:55:38.519Z,24.20
2018-06-15T15:58:07.177Z,24.00
2018-06-15T16:03:03.956Z,24.10
2018-06-15T16:05:32.493Z,24.30
2018-06-15T16:08:01.553Z,24.50
2018-06-15T16:10:30.056Z,24.60
2018-06-15T16:12:58.594Z,24.60
2018-06-15T16:15:27.162Z,24.60
2018-06-15T16:20:24.150Z,24.60
2018-06-15T16:22:53.070Z,24.50
2018-06-15T16:25:21.620Z,24.40
2018-06-15T16:27:50.163Z,24.50
2018-06-15T16:30:18.719Z,24.50
2018-06-15T16:32:47.241Z,24.60
2018-06-15T16:35:15.781Z,24.60
2018-06-15T16:37:44.338Z,24.60
2018-06-15T16:40:14.187Z,24.60
2018-06-15T16:42:42.793Z,24.50
2018-06-15T16:45:12.370Z,24.20
2018-06-15T16:47:40.909Z,24.10
2018-06-15T16:50:09.474Z,23.80
2018-06-15T16:52:39.028Z,23.70
2018-06-15T16:55:07.606Z,23.40
2018-06-15T16:57:37.137Z,23.20
2018-06-15T17:00:06.974Z,23.00
2018-06-15T17:02:35.910Z,22.70
2018-06-15T17:05:04.471Z,22.70
2018-06-15T17:07:33.630Z,22.70
2018-06-15T17:10:02.152Z,22.60
2018-06-15T17:12:30.841Z,22.50
2018-06-15T17:15:00.327Z,22.50
2018-06-15T17:17:29.846Z,22.50
2018-06-15T17:19:59.081Z,22.50
2018-06-15T17:22:27.898Z,22.60
2018-06-15T17:24:56.454Z,22.70
2018-06-15T17:27:26.266Z,22.60
2018-06-15T17:29:56.057Z,22.60
2018-06-15T17:32:25.471Z,22.50
2018-06-15T17:34:54.944Z,22.40
2018-06-15T17:37:23.545Z,22.50
2018-06-15T17:39:52.491Z,22.40
2018-06-15T17:42:21.127Z,22.30
2018-06-15T17:44:50.153Z,22.50
2018-06-15T17:47:19.359Z,22.50
2018-06-15T17:49:48.085Z,22.40
2018-06-15T17:52:16.734Z,22.40
2018-06-15T17:54:45.296Z,22.40
2018-06-15T17:57:13.850Z,22.40
2018-06-15T17:59:42.458Z,22.40
2018-06-15T18:02:11.467Z,22.30
2018-06-15T18:04:40.904Z,22.30
2018-06-15T18:07:10.358Z,22.20
2018-06-15T18:09:39.122Z,22.10
2018-06-15T18:12:08.368Z,22.20
2018-06-15T18:14:39.007Z,22.30
2018-06-15T18:17:09.888Z,22.30
2018-06-15T18:19:39.507Z,22.40
2018-06-15T18:22:08.080Z,22.90
2018-06-15T18:24:37.089Z,23.40
2018-06-15T18:27:05.734Z,23.80
2018-06-15T18:29:34.374Z,24.60
2018-06-15T18:32:04.303Z,25.60
2018-06-15T18:34:33.453Z,26.60
2018-06-15T18:37:02.056Z,27.60
2018-06-15T18:39:30.690Z,28.20
2018-06-15T18:41:59.873Z,28.40
2018-06-15T18:44:28.482Z,28.20
2018-06-15T18:46:57.917Z,27.20
2018-06-15T18:49:26.747Z,26.10
2018-06-15T18:51:55.486Z,25.10
2018-06-15T18:54:25.031Z,24.10
2018-06-15T18:56:53.910Z,23.30
2018-06-15T18:59:24.504Z,22.80
2018-06-15T19:01:53.354Z,22.20
2018-06-15T19:04:22.229Z,21.70
2018-06-15T19:06:51.718Z,21.50
2018-06-15T19:09:21.700Z,21.20
2018-06-15T19:11:51.121Z,20.90
2018-06-15T19:14:19.821Z,20.60
2018-06-15T19:16:48.663Z,20.30
2018-06-15T19:19:17.285Z,20.00
2018-06-15T19:21:46.312Z,19.80
2018-06-15T19:24:15.449Z,19.70
2018-06-15T19:26:46.920Z,19.60
2018-06-15T19:29:15.584Z,19.40
2018-06-15T19:31:45.246Z,19.40
2018-06-15T19:34:14.836Z,19.30
2018-06-15T19:36:43.506Z,19.10
2018-06-15T19:39:13.687Z,18.90
2018-06-15T19:41:42.797Z,18.80
2018-06-15T19:44:11.766Z,18.70
2018-06-15T19:46:41.738Z,18.60
2018-06-15T19:49:11.607Z,18.40
2018-06-15T19:51:43.657Z,18.30
2018-06-15T19:54:12.341Z,18.20
2018-06-15T19:56:42.171Z,18.00
2018-06-15T19:59:11.609Z,18.20
2018-06-15T20:01:40.961Z,18.20
2018-06-15T20:04:10.083Z,18.10
2018-06-15T20:06:42.777Z,18.20
2018-06-15T20:09:12.546Z,18.10
2018-06-15T20:11:41.845Z,18.00
2018-06-15T20:14:16.698Z,17.90
2018-06-15T20:16:45.799Z,17.80
2018-06-15T20:19:15.106Z,17.60
2018-06-15T20:21:44.718Z,17.50
2018-06-15T20:24:15.833Z,17.60
2018-06-15T20:26:46.818Z,17.40
2018-06-15T20:29:16.614Z,17.30
2018-06-15T20:31:46.890Z,17.30
2018-06-15T20:34:16.021Z,17.30
2018-06-15T20:36:44.789Z,17.30
2018-06-15T20:39:13.554Z,17.20
2018-06-15T20:41:43.276Z,17.10
2018-06-15T20:44:12.877Z,17.00
2018-06-15T20:46:41.513Z,16.90
2018-06-15T20:49:10.586Z,16.80
2018-06-15T20:51:39.258Z,16.80
2018-06-15T20:54:07.914Z,16.90
2018-06-15T20:56:37.374Z,16.90
2018-06-15T20:59:06.501Z,16.90
2018-06-15T21:01:35.137Z,16.80
2018-06-15T21:04:04.258Z,16.70
2018-06-15T21:06:33.174Z,16.60
2018-06-15T21:09:02.801Z,16.70
2018-06-15T21:11:33.513Z,16.50
2018-06-15T21:14:02.133Z,16.40
2018-06-15T21:16:30.845Z,16.30
2018-06-15T21:19:00.016Z,16.20
2018-06-15T21:21:29.908Z,16.10
2018-06-15T21:23:59.032Z,16.10
2018-06-15T21:26:27.700Z,16.00
2018-06-15T21:31:46.729Z,15.90
2018-06-15T21:34:15.817Z,15.90
2018-06-15T21:36:45.125Z,16.00
2018-06-15T21:39:16.446Z,16.00
2018-06-15T21:41:48.382Z,15.90
2018-06-15T21:44:19.234Z,15.80
2018-06-15T21:46:48.571Z,15.70
2018-06-15T21:49:20.935Z,15.50
2018-06-15T21:51:51.824Z,15.50
2018-06-15T21:54:25.262Z,15.40
2018-06-15T21:56:55.515Z,15.20
2018-06-15T21:59:30.335Z,15.10
2018-06-15T22:02:02.369Z,15.10
2018-06-15T22:04:33.331Z,15.20
2018-06-15T22:07:03.617Z,15.10
2018-06-15T22:09:45.870Z,15.00
2018-06-15T22:12:16.578Z,14.90
2018-06-15T22:14:47.965Z,15.00
2018-06-15T22:17:17.913Z,15.00
2018-06-15T22:22:16.572Z,15.10
2018-06-15T22:24:45.957Z,15.10
2018-06-15T22:27:15.254Z,14.90
2018-06-15T22:29:43.984Z,14.90
2018-06-15T22:32:13.017Z,14.80
2018-06-15T22:34:42.597Z,14.70
2018-06-15T22:37:11.976Z,14.60
2018-06-15T22:39:42.198Z,14.60
2018-06-15T22:42:11.781Z,14.40
2018-06-15T22:44:41.446Z,14.50
2018-06-15T22:47:11.062Z,14.50
2018-06-15T22:49:39.895Z,14.40
2018-06-15T22:52:08.859Z,14.60
2018-06-15T22:54:38.681Z,14.50
2018-06-15T22:57:08.555Z,14.50
2018-06-15T22:59:37.340Z,14.40
2018-06-15T23:02:06.568Z,14.40
2018-06-15T23:04:35.873Z,14.40
2018-06-15T23:07:06.774Z,14.30
2018-06-15T23:09:36.497Z,14.20
2018-06-15T23:12:05.266Z,14.10
2018-06-15T23:14:35.039Z,14.20
2018-06-15T23:17:04.440Z,14.00
2018-06-15T23:19:34.340Z,14.00
2018-06-15T23:22:02.904Z,13.90
2018-06-15T23:24:32.460Z,13.90
2018-06-15T23:27:00.988Z,13.90
2018-06-15T23:29:29.550Z,13.90
2018-06-15T23:31:58.046Z,14.00
2018-06-15T23:34:26.985Z,13.90
